createdAt,value
2018-08-24T00:01:17.501Z,14.17
2018-08-24T00:03:41.559Z,15.50
2018-08-24T00:06:05.610Z,15.27
2018-08-24T00:08:29.736Z,16.17
2018-08-24T00:10:53.630Z,17.83
2018-08-24T00:13:17.537Z,17.10
2018-08-24T00:15:41.390Z,17.20
2018-08-24T00:18:05.528Z,18.93
2018-08-24T00:20:29.605Z,19.13
2018-08-24T00:22:53.478Z,17.20
2018-08-24T00:25:17.356Z,17.23
2018-08-24T00:27:41.249Z,18.40
2018-08-24T00:30:05.633Z,18.33
2018-08-24T00:32:29.507Z,18.50
2018-08-24T00:34:53.401Z,18.77
2018-08-24T00:37:17.278Z,20.50
2018-08-24T00:39:44.270Z,19.73
2018-08-24T00:42:08.195Z,19.47
2018-08-24T00:44:32.078Z,19.53
2018-08-24T00:46:56.011Z,20.63
2018-08-24T00:49:20.107Z,20.27
2018-08-24T00:51:43.964Z,20.43
2018-08-24T00:54:07.856Z,19.57
2018-08-24T00:56:31.737Z,19.37
2018-08-24T00:58:55.594Z,19.87
2018-08-24T01:01:19.520Z,19.87
2018-08-24T01:03:43.402Z,19.20
2018-08-24T01:06:07.763Z,18.87
2018-08-24T01:08:31.621Z,20.10
2018-08-24T01:10:55.503Z,18.87
2018-08-24T01:13:19.486Z,19.23
2018-08-24T01:15:50.937Z,20.33
2018-08-24T01:18:21.143Z,21.03
2018-08-24T01:20:50.248Z,18.93
2018-08-24T01:23:14.133Z,20.37
2018-08-24T01:25:38.098Z,21.13
2018-08-24T01:28:01.955Z,20.97
2018-08-24T01:30:25.864Z,21.90
2018-08-24T01:32:49.748Z,21.57
2018-08-24T01:35:13.636Z,22.97
2018-08-24T01:37:37.500Z,21.93
2018-08-24T01:40:01.389Z,21.63
2018-08-24T01:42:25.299Z,22.27
2018-08-24T01:44:49.186Z,21.87
2018-08-24T01:47:13.035Z,22.90
2018-08-24T01:49:36.905Z,22.60
2018-08-24T01:52:00.756Z,22.33
2018-08-24T01:54:24.690Z,22.57
2018-08-24T01:56:48.561Z,22.37
2018-08-24T01:59:13.134Z,22.63
2018-08-24T02:01:36.941Z,22.67
2018-08-24T02:04:00.829Z,23.43
2018-08-24T02:06:24.833Z,22.23
2018-08-24T02:08:48.732Z,22.63
2018-08-24T02:11:17.961Z,22.20
2018-08-24T02:13:47.249Z,22.30
2018-08-24T02:16:11.108Z,22.27
2018-08-24T02:18:40.203Z,21.43
2018-08-24T02:21:09.406Z,22.00
2018-08-24T02:23:33.314Z,20.70
2018-08-24T02:25:57.214Z,21.23
2018-08-24T02:28:21.108Z,20.60
2018-08-24T02:30:45.018Z,21.17
2018-08-24T02:33:08.898Z,21.07
2018-08-24T02:35:32.931Z,20.70
2018-08-24T02:37:56.794Z,20.17
2018-08-24T02:40:21.096Z,21.00
2018-08-24T02:42:45.477Z,19.87
2018-08-24T02:45:09.372Z,20.33
2018-08-24T02:47:33.429Z,19.87
2018-08-24T02:49:57.429Z,19.77
2018-08-24T02:52:21.454Z,21.03
2018-08-24T02:54:45.332Z,19.37
2018-08-24T02:57:09.191Z,19.50
2018-08-24T02:59:33.913Z,18.90
2018-08-24T03:01:58.792Z,19.03
2018-08-24T03:04:22.685Z,18.90
2018-08-24T03:06:46.567Z,19.73
2018-08-24T03:09:11.495Z,19.90
2018-08-24T03:11:35.359Z,19.13
2018-08-24T03:13:59.219Z,19.50
2018-08-24T03:16:23.151Z,18.50
2018-08-24T03:18:47.036Z,19.30
2018-08-24T03:21:10.979Z,19.17
2018-08-24T03:23:34.868Z,20.13
2018-08-24T03:25:58.965Z,18.30
2018-08-24T03:28:22.834Z,18.67
2018-08-24T03:30:46.716Z,18.67
2018-08-24T03:33:10.592Z,17.67
2018-08-24T03:35:34.467Z,17.37
2018-08-24T03:37:58.766Z,16.87
2018-08-24T03:40:22.643Z,16.40
2018-08-24T03:42:46.523Z,17.13
2018-08-24T03:45:10.426Z,16.20
2018-08-24T03:47:34.283Z,16.13
2018-08-24T03:49:58.445Z,16.60
2018-08-24T03:52:22.517Z,16.17
2018-08-24T03:54:46.423Z,15.53
2018-08-24T03:57:10.320Z,16.53
2018-08-24T03:59:34.190Z,15.77
2018-08-24T04:01:58.294Z,14.87
2018-08-24T04:04:22.242Z,15.03
2018-08-24T04:06:46.751Z,15.60
2018-08-24T04:09:10.899Z,15.60
2018-08-24T04:11:34.762Z,16.17
2018-08-24T04:13:58.837Z,15.57
2018-08-24T04:16:22.913Z,15.80
2018-08-24T04:18:46.778Z,16.33
2018-08-24T04:21:10.958Z,16.03
2018-08-24T04:23:34.838Z,15.80
2018-08-24T04:25:58.810Z,16.33
2018-08-24T04:28:22.660Z,15.93
2018-08-24T04:30:46.532Z,16.00
2018-08-24T04:33:10.638Z,16.20
2018-08-24T04:35:34.538Z,15.43
2018-08-24T04:37:58.385Z,15.43
2018-08-24T04:40:22.365Z,15.50
2018-08-24T04:42:46.201Z,15.57
2018-08-24T04:45:10.077Z,14.60
2018-08-24T04:47:34.280Z,15.43
2018-08-24T04:49:58.372Z,14.73
2018-08-24T04:52:22.751Z,13.57
2018-08-24T04:54:46.614Z,13.77
2018-08-24T04:57:10.576Z,12.97
2018-08-24T04:59:34.730Z,12.57
2018-08-24T05:01:58.607Z,12.13
2018-08-24T05:04:22.669Z,11.97
2018-08-24T05:06:46.594Z,12.07
2018-08-24T05:09:11.082Z,11.10
2018-08-24T05:11:35.166Z,10.93
2018-08-24T05:13:59.023Z,10.73
2018-08-24T05:16:22.909Z,10.17
2018-08-24T05:18:46.813Z,9.83
2018-08-24T05:21:10.721Z,8.60
2018-08-24T05:23:34.750Z,8.37
2018-08-24T05:25:58.615Z,7.83
2018-08-24T05:28:22.488Z,7.27
2018-08-24T05:30:46.387Z,6.80
2018-08-24T05:33:10.640Z,6.93
2018-08-24T05:35:34.872Z,6.37
2018-08-24T05:37:58.702Z,6.53
2018-08-24T05:40:22.544Z,6.47
2018-08-24T05:42:46.395Z,5.80
2018-08-24T05:45:10.248Z,6.47
2018-08-24T05:47:34.307Z,5.83
2018-08-24T05:49:58.154Z,5.70
2018-08-24T05:52:22.024Z,5.57
2018-08-24T05:54:45.899Z,4.97
2018-08-24T05:57:09.732Z,4.27
2018-08-24T05:59:33.636Z,3.90
2018-08-24T06:01:57.526Z,3.83
2018-08-24T06:04:21.396Z,3.80
2018-08-24T06:06:45.284Z,3.63
2018-08-24T06:09:14.072Z,3.67
2018-08-24T06:11:37.966Z,3.63
2018-08-24T06:14:01.838Z,3.87
2018-08-24T06:16:25.689Z,3.17
2018-08-24T06:18:49.568Z,3.20
2018-08-24T06:21:13.418Z,3.03
2018-08-24T06:23:37.635Z,3.33
2018-08-24T06:26:01.543Z,2.70
2018-08-24T06:28:25.442Z,2.47
2018-08-24T06:30:49.592Z,2.20
2018-08-24T06:33:13.473Z,2.30
2018-08-24T06:35:37.357Z,2.20
2018-08-24T06:38:01.486Z,2.10
2018-08-24T06:40:25.410Z,2.60
2018-08-24T06:42:49.310Z,2.30
2018-08-24T06:45:13.169Z,2.90
2018-08-24T06:47:37.094Z,3.40
2018-08-24T06:50:00.943Z,4.23
2018-08-24T06:55:38.846Z,4.30
2018-08-24T06:58:02.755Z,4.53
2018-08-24T07:00:30.533Z,4.77
2018-08-24T07:02:54.440Z,5.17
2018-08-24T07:05:18.314Z,5.40
2018-08-24T07:07:42.272Z,5.43
2018-08-24T07:10:06.359Z,5.50
2018-08-24T07:12:30.242Z,5.47
2018-08-24T07:14:54.137Z,5.47
2018-08-24T07:17:23.392Z,5.43
2018-08-24T07:19:47.307Z,4.87
2018-08-24T07:22:11.252Z,4.87
2018-08-24T07:24:35.137Z,4.90
2018-08-24T07:26:59.141Z,4.90
2018-08-24T07:29:23.018Z,4.30
2018-08-24T07:31:46.904Z,5.00
2018-08-24T07:34:10.835Z,4.90
2018-08-24T07:36:34.758Z,4.60
2018-08-24T07:38:58.683Z,4.50
2018-08-24T07:41:22.623Z,4.53
2018-08-24T07:43:46.465Z,4.83
2018-08-24T07:46:10.382Z,4.50
2018-08-24T07:48:34.226Z,4.57
2018-08-24T07:50:58.241Z,4.77
2018-08-24T07:53:22.028Z,4.80
2018-08-24T07:55:45.919Z,4.93
2018-08-24T07:58:09.828Z,5.10
2018-08-24T08:00:33.715Z,4.73
2018-08-24T08:02:57.642Z,4.43
2018-08-24T08:05:21.590Z,5.20
2018-08-24T08:07:45.442Z,4.37
2018-08-24T08:10:09.783Z,4.63
2018-08-24T08:12:33.656Z,4.97
2018-08-24T08:15:02.855Z,4.30
2018-08-24T08:17:26.773Z,4.60
2018-08-24T08:19:50.676Z,5.30
2018-08-24T08:22:14.601Z,5.33
2018-08-24T08:24:38.510Z,5.10
2018-08-24T08:27:02.474Z,4.60
2018-08-24T08:29:31.758Z,5.07
2018-08-24T08:31:55.644Z,4.80
2018-08-24T08:34:19.500Z,5.70
2018-08-24T08:36:43.415Z,5.03
2018-08-24T08:39:09.438Z,5.30
2018-08-24T08:41:33.325Z,5.17
2018-08-24T08:43:57.174Z,5.43
2018-08-24T08:46:21.185Z,5.60
2018-08-24T08:48:45.066Z,5.53
2018-08-24T08:51:08.928Z,5.47
2018-08-24T08:53:32.901Z,5.30
2018-08-24T08:55:56.720Z,5.30
2018-08-24T08:58:20.659Z,6.20
2018-08-24T09:00:44.538Z,5.97
2018-08-24T09:03:08.425Z,5.63
2018-08-24T09:05:32.364Z,5.63
2018-08-24T09:07:56.300Z,5.70
2018-08-24T09:10:20.189Z,6.17
2018-08-24T09:12:44.098Z,5.80
2018-08-24T09:15:08.015Z,5.80
2018-08-24T09:17:37.265Z,6.30
2018-08-24T09:20:06.491Z,5.27
2018-08-24T09:22:35.779Z,5.60
2018-08-24T09:25:04.944Z,5.87
2018-08-24T09:27:29.916Z,5.70
2018-08-24T09:29:54.936Z,5.70
2018-08-24T09:32:18.824Z,5.60
2018-08-24T09:34:42.686Z,4.97
2018-08-24T09:37:10.776Z,5.60
2018-08-24T09:39:34.623Z,5.37
2018-08-24T09:41:59.601Z,5.33
2018-08-24T09:44:23.493Z,5.70
2018-08-24T09:46:52.741Z,5.77
2018-08-24T09:49:21.717Z,5.17
2018-08-24T09:51:45.606Z,5.47
2018-08-24T09:54:10.086Z,5.17
2018-08-24T09:56:34.865Z,5.27
2018-08-24T09:58:59.354Z,5.77
2018-08-24T10:01:28.355Z,6.00
2018-08-24T10:06:01.994Z,5.37
2018-08-24T10:08:30.479Z,5.07
2018-08-24T10:10:54.384Z,5.40
2018-08-24T10:13:18.342Z,5.63
2018-08-24T10:15:42.210Z,5.50
2018-08-24T10:18:06.157Z,5.70
2018-08-24T10:20:30.041Z,5.50
2018-08-24T10:22:53.901Z,5.27
2018-08-24T10:25:17.892Z,5.10
2018-08-24T10:27:41.787Z,5.23
2018-08-24T10:30:06.155Z,5.53
2018-08-24T10:32:30.093Z,4.77
2018-08-24T10:34:53.963Z,5.23
2018-08-24T10:37:17.953Z,5.70
2018-08-24T10:39:41.833Z,5.10
2018-08-24T10:42:05.729Z,5.10
2018-08-24T10:44:29.677Z,5.03
2018-08-24T10:46:53.560Z,5.73
2018-08-24T10:49:17.519Z,5.53
2018-08-24T10:51:41.362Z,5.40
2018-08-24T10:54:05.265Z,5.63
2018-08-24T10:56:29.165Z,5.07
2018-08-24T10:58:53.068Z,5.80
2018-08-24T11:01:16.936Z,5.50
2018-08-24T11:03:40.892Z,5.67
2018-08-24T11:06:04.779Z,5.83
2018-08-24T11:08:28.688Z,5.33
2018-08-24T11:10:52.584Z,5.50
2018-08-24T11:13:16.455Z,5.87
2018-08-24T11:15:40.338Z,5.20
2018-08-24T11:18:07.693Z,5.10
2018-08-24T11:20:31.668Z,5.70
2018-08-24T11:22:55.567Z,5.33
2018-08-24T11:25:19.749Z,5.17
2018-08-24T11:27:43.734Z,5.60
2018-08-24T11:30:07.690Z,5.57
2018-08-24T11:32:31.584Z,5.50
2018-08-24T11:34:55.480Z,5.40
2018-08-24T11:37:19.361Z,6.73
2018-08-24T11:39:43.582Z,6.13
2018-08-24T11:42:07.491Z,5.90
2018-08-24T11:44:31.339Z,6.70
2018-08-24T11:46:55.226Z,7.13
2018-08-24T11:49:19.141Z,7.33
2018-08-24T11:51:43.195Z,6.87
2018-08-24T11:54:07.113Z,7.30
2018-08-24T11:56:30.946Z,7.10
2018-08-24T11:58:54.876Z,6.50
2018-08-24T12:01:18.818Z,6.83
2018-08-24T12:03:42.797Z,7.27
2018-08-24T12:06:06.711Z,7.07
2018-08-24T12:08:30.684Z,5.93
2018-08-24T12:10:54.668Z,5.30
2018-08-24T12:13:18.542Z,4.50
2018-08-24T12:15:42.435Z,4.83
2018-08-24T12:18:07.474Z,4.60
2018-08-24T12:20:31.574Z,4.87
2018-08-24T12:22:55.429Z,4.60
2018-08-24T12:25:19.318Z,5.87
2018-08-24T12:27:43.430Z,4.97
2018-08-24T12:30:07.352Z,4.70
2018-08-24T12:32:31.228Z,4.87
2018-08-24T12:34:55.171Z,4.50
2018-08-24T12:37:19.018Z,5.10
2018-08-24T12:39:43.416Z,5.23
2018-08-24T12:42:08.348Z,5.53
2018-08-24T12:44:32.261Z,5.80
2018-08-24T12:46:56.127Z,5.67
2018-08-24T12:49:20.292Z,6.80
2018-08-24T12:51:44.170Z,6.60
2018-08-24T12:54:08.474Z,6.93
2018-08-24T12:56:32.426Z,5.83
2018-08-24T12:58:56.315Z,5.17
2018-08-24T13:01:20.823Z,5.53
2018-08-24T13:03:44.903Z,5.03
2018-08-24T13:06:08.797Z,4.57
2018-08-24T13:08:32.778Z,5.13
2018-08-24T13:10:56.669Z,4.50
2018-08-24T13:13:20.690Z,4.70
2018-08-24T13:15:44.570Z,5.20
2018-08-24T13:18:08.437Z,5.13
2018-08-24T13:20:32.368Z,5.83
2018-08-24T13:22:56.253Z,5.50
2018-08-24T13:25:20.278Z,5.37
2018-08-24T13:27:44.176Z,6.63
2018-08-24T13:30:08.116Z,5.97
2018-08-24T13:32:32.046Z,5.70
2018-08-24T13:34:55.912Z,5.37
2018-08-24T13:37:19.851Z,5.07
2018-08-24T13:39:43.697Z,4.50
2018-08-24T13:42:07.646Z,4.90
2018-08-24T13:44:31.620Z,4.17
2018-08-24T13:46:55.514Z,4.60
2018-08-24T13:49:19.486Z,4.40
2018-08-24T13:51:43.445Z,4.30
2018-08-24T13:54:07.500Z,3.90
2018-08-24T13:56:31.425Z,3.30
2018-08-24T13:58:55.319Z,3.30
2018-08-24T14:01:19.261Z,3.37
2018-08-24T14:03:43.137Z,3.37
2018-08-24T14:06:07.266Z,3.00
2018-08-24T14:08:31.199Z,3.40
2018-08-24T14:10:55.110Z,2.93
2018-08-24T14:13:19.097Z,3.10
2018-08-24T14:15:43.205Z,2.80
2018-08-24T14:18:07.424Z,2.60
2018-08-24T14:20:31.348Z,2.70
2018-08-24T14:22:55.230Z,2.27
2018-08-24T14:25:19.639Z,2.23
2018-08-24T14:27:43.575Z,2.17
2018-08-24T14:30:08.239Z,1.70
2018-08-24T14:32:32.165Z,1.83
2018-08-24T14:34:56.062Z,1.60
2018-08-24T14:37:19.956Z,1.97
2018-08-24T14:39:43.874Z,1.30
2018-08-24T14:42:07.751Z,1.40
2018-08-24T14:44:31.679Z,1.40
2018-08-24T14:46:55.628Z,1.50
2018-08-24T14:49:19.510Z,1.40
2018-08-24T14:51:43.635Z,1.33
2018-08-24T14:54:07.537Z,1.70
2018-08-24T14:56:31.421Z,1.50
2018-08-24T14:58:55.326Z,1.37
2018-08-24T15:01:19.366Z,1.10
2018-08-24T15:03:43.278Z,1.53
2018-08-24T15:06:07.224Z,1.27
2018-08-24T15:08:31.351Z,1.40
2018-08-24T15:10:55.424Z,1.70
2018-08-24T15:13:19.331Z,1.40
2018-08-24T15:15:43.278Z,1.37
2018-08-24T15:18:07.125Z,1.50
2018-08-24T15:20:31.027Z,1.70
2018-08-24T15:22:54.964Z,1.33
2018-08-24T15:25:18.882Z,1.43
2018-08-24T15:27:42.813Z,1.13
2018-08-24T15:30:06.722Z,1.40
2018-08-24T15:32:30.940Z,2.00
2018-08-24T15:34:54.836Z,1.83
2018-08-24T15:37:18.717Z,1.70
2018-08-24T15:39:42.654Z,2.00
2018-08-24T15:42:06.811Z,1.77
2018-08-24T15:44:30.984Z,1.80
2018-08-24T15:46:54.911Z,2.70
2018-08-24T15:49:18.843Z,1.60
2018-08-24T15:51:42.744Z,1.67
2018-08-24T15:54:06.683Z,2.10
2018-08-24T15:56:30.807Z,1.77
2018-08-24T15:58:54.695Z,1.53
2018-08-24T16:01:18.588Z,2.10
2018-08-24T16:03:42.496Z,2.00
2018-08-24T16:06:06.360Z,1.77
2018-08-24T16:08:30.225Z,1.77
2018-08-24T16:10:54.178Z,2.17
2018-08-24T16:13:18.119Z,1.70
2018-08-24T16:15:42.492Z,2.10
2018-08-24T16:18:11.769Z,1.70
2018-08-24T16:20:35.673Z,1.87
2018-08-24T16:22:59.589Z,1.93
2018-08-24T16:25:23.787Z,2.20
2018-08-24T16:27:47.805Z,2.30
2018-08-24T16:30:11.716Z,2.53
2018-08-24T16:32:35.689Z,1.93
2018-08-24T16:34:59.599Z,1.70
2018-08-24T16:37:23.522Z,1.90
2018-08-24T16:39:47.583Z,1.50
2018-08-24T16:42:11.531Z,1.50
2018-08-24T16:44:35.426Z,2.00
2018-08-24T16:46:59.355Z,7.70
2018-08-24T16:49:23.303Z,1.70
2018-08-24T16:51:47.199Z,1.80
2018-08-24T16:54:11.112Z,1.80
2018-08-24T16:56:35.190Z,2.50
2018-08-24T16:58:59.045Z,1.83
2018-08-24T17:01:22.931Z,5.40
2018-08-24T17:03:46.861Z,1.40
2018-08-24T17:06:10.717Z,1.40
2018-08-24T17:08:34.905Z,1.80
2018-08-24T17:10:58.814Z,1.50
2018-08-24T17:13:22.720Z,1.40
2018-08-24T17:15:46.678Z,1.50
2018-08-24T17:18:10.501Z,1.87
2018-08-24T17:20:34.440Z,2.17
2018-08-24T17:22:58.319Z,1.73
2018-08-24T17:25:22.507Z,1.90
2018-08-24T17:27:46.411Z,1.57
2018-08-24T17:30:10.389Z,2.07
2018-08-24T17:32:34.310Z,1.43
2018-08-24T17:34:58.224Z,1.70
2018-08-24T17:37:22.578Z,2.13
2018-08-24T17:39:46.661Z,1.70
2018-08-24T17:42:10.577Z,1.50
2018-08-24T17:44:34.498Z,1.63
2018-08-24T17:46:58.552Z,1.70
2018-08-24T17:49:22.434Z,2.23
2018-08-24T17:51:46.523Z,1.70
2018-08-24T17:54:10.645Z,2.00
2018-08-24T17:56:34.529Z,2.20
2018-08-24T17:58:58.456Z,1.57
2018-08-24T18:01:22.351Z,1.53
2018-08-24T18:03:46.513Z,1.73
2018-08-24T18:06:10.468Z,1.50
2018-08-24T18:08:34.394Z,1.40
2018-08-24T18:10:58.445Z,1.87
2018-08-24T18:13:22.393Z,1.50
2018-08-24T18:15:46.299Z,1.60
2018-08-24T18:18:10.555Z,1.30
2018-08-24T18:20:34.908Z,1.30
2018-08-24T18:22:58.792Z,1.63
2018-08-24T18:25:22.699Z,1.70
2018-08-24T18:27:46.703Z,1.20
2018-08-24T18:30:10.816Z,1.33
2018-08-24T18:32:34.956Z,1.30
2018-08-24T18:34:59.118Z,1.50
2018-08-24T18:37:22.941Z,1.60
2018-08-24T18:39:46.917Z,1.60
2018-08-24T18:42:10.876Z,1.30
2018-08-24T18:44:34.941Z,1.30
2018-08-24T18:46:58.836Z,1.90
2018-08-24T18:49:22.754Z,1.50
2018-08-24T18:51:46.700Z,1.20
2018-08-24T18:54:10.624Z,1.50
2018-08-24T18:56:34.762Z,1.50
2018-08-24T18:58:59.567Z,1.27
2018-08-24T19:01:23.489Z,1.20
2018-08-24T19:03:47.670Z,1.47
2018-08-24T19:06:11.590Z,2.13
2018-08-24T19:08:36.045Z,2.10
2018-08-24T19:11:05.519Z,2.00
2018-08-24T19:13:29.481Z,1.77
2018-08-24T19:15:53.386Z,1.47
2018-08-24T19:18:22.539Z,1.63
2018-08-24T19:20:52.203Z,1.73
2018-08-24T19:23:16.068Z,1.53
2018-08-24T19:25:40.075Z,1.50
2018-08-24T19:28:09.648Z,1.43
2018-08-24T19:30:34.269Z,1.33
2018-08-24T19:32:58.164Z,1.37
2018-08-24T19:35:22.085Z,1.40
2018-08-24T19:37:46.315Z,1.60
2018-08-24T19:40:15.426Z,1.20
2018-08-24T19:42:39.382Z,1.70
2018-08-24T19:45:03.388Z,1.33
2018-08-24T19:47:32.504Z,1.33
2018-08-24T19:49:56.398Z,1.50
2018-08-24T19:52:20.303Z,1.30
2018-08-24T19:54:44.470Z,1.40
2018-08-24T19:57:13.627Z,1.50
2018-08-24T19:59:37.532Z,2.03
2018-08-24T20:02:02.214Z,1.70
2018-08-24T20:04:26.159Z,1.40
2018-08-24T20:06:55.374Z,1.17
2018-08-24T20:09:24.696Z,1.27
2018-08-24T20:11:50.086Z,1.50
2018-08-24T20:14:14.060Z,1.27
2018-08-24T20:16:43.156Z,1.23
2018-08-24T20:19:07.370Z,1.20
2018-08-24T20:21:31.458Z,1.47
2018-08-24T20:23:55.419Z,1.30
2018-08-24T20:26:19.402Z,1.60
2018-08-24T20:28:43.299Z,1.40
2018-08-24T20:31:07.395Z,1.30
2018-08-24T20:33:31.362Z,1.43
2018-08-24T20:35:55.225Z,1.30
2018-08-24T20:38:19.151Z,1.77
2018-08-24T20:40:43.065Z,1.87
2018-08-24T20:43:07.013Z,1.40
2018-08-24T20:45:30.869Z,1.33
2018-08-24T20:47:54.846Z,1.40
2018-08-24T20:50:18.814Z,1.57
2018-08-24T20:52:42.695Z,1.20
2018-08-24T20:55:06.860Z,1.43
2018-08-24T20:57:30.686Z,1.53
2018-08-24T20:59:54.789Z,1.50
2018-08-24T21:02:18.678Z,1.43
2018-08-24T21:04:42.584Z,1.20
2018-08-24T21:07:06.901Z,1.80
2018-08-24T21:09:31.569Z,1.10
2018-08-24T21:11:55.480Z,1.20
2018-08-24T21:14:19.429Z,1.30
2018-08-24T21:16:43.364Z,1.57
2018-08-24T21:19:07.239Z,1.70
2018-08-24T21:21:31.228Z,1.40
2018-08-24T21:23:55.200Z,1.50
2018-08-24T21:26:19.197Z,1.70
2018-08-24T21:28:43.077Z,1.63
2018-08-24T21:31:07.052Z,1.73
2018-08-24T21:33:30.908Z,1.43
2018-08-24T21:35:54.905Z,1.40
2018-08-24T21:38:18.927Z,1.47
2018-08-24T21:40:42.817Z,1.40
2018-08-24T21:43:06.783Z,1.73
2018-08-24T21:45:30.676Z,1.47
2018-08-24T21:47:54.546Z,1.33
2018-08-24T21:50:18.490Z,1.43
2018-08-24T21:52:42.363Z,1.50
2018-08-24T21:55:06.281Z,1.40
2018-08-24T21:57:30.238Z,1.73
2018-08-24T21:59:54.280Z,1.90
2018-08-24T22:02:18.250Z,2.00
2018-08-24T22:04:42.108Z,1.30
2018-08-24T22:07:06.017Z,1.77
2018-08-24T22:09:29.913Z,1.40
2018-08-24T22:11:53.801Z,1.27
2018-08-24T22:14:17.713Z,1.57
2018-08-24T22:16:41.625Z,1.37
2018-08-24T22:19:06.115Z,1.20
2018-08-24T22:21:30.027Z,1.57
2018-08-24T22:23:53.980Z,1.53
2018-08-24T22:26:17.888Z,1.50
2018-08-24T22:28:41.927Z,1.30
2018-08-24T22:31:06.311Z,1.50
2018-08-24T22:33:30.344Z,1.50
2018-08-24T22:35:54.300Z,1.43
2018-08-24T22:38:18.363Z,0.93
2018-08-24T22:40:42.257Z,1.37
2018-08-24T22:43:10.292Z,1.47
2018-08-24T22:45:34.173Z,1.20
2018-08-24T22:47:58.069Z,1.60
2018-08-24T22:50:22.128Z,1.40
2018-08-24T22:52:45.992Z,1.40
2018-08-24T22:55:10.502Z,1.30
2018-08-24T22:57:34.395Z,1.40
2018-08-24T22:59:58.275Z,1.50
2018-08-24T23:02:22.255Z,1.50
2018-08-24T23:04:46.117Z,1.23
2018-08-24T23:07:09.993Z,1.53
2018-08-24T23:09:33.971Z,1.43
2018-08-24T23:11:57.853Z,1.30
2018-08-24T23:14:21.750Z,1.60
2018-08-24T23:16:45.623Z,1.70
2018-08-24T23:19:09.748Z,1.70
2018-08-24T23:21:33.712Z,1.60
2018-08-24T23:23:57.604Z,1.80
2018-08-24T23:26:21.552Z,1.63
2018-08-24T23:28:45.391Z,1.50
2018-08-24T23:31:09.300Z,1.43
2018-08-24T23:33:33.207Z,1.33
2018-08-24T23:35:57.072Z,1.57
2018-08-24T23:38:20.960Z,1.40
2018-08-24T23:40:45.021Z,2.20
2018-08-24T23:43:08.891Z,1.40
2018-08-24T23:45:32.778Z,1.73
2018-08-24T23:47:56.715Z,1.70
2018-08-24T23:50:20.596Z,2.00
2018-08-24T23:52:44.704Z,1.40
2018-08-24T23:55:08.794Z,1.67
2018-08-24T23:57:32.704Z,1.80
2018-08-24T23:59:56.598Z,1.83
